Time;durP1;ratioP1;P1;durP2;ratioP2;P2;SDS_P1;SDS_P2;PMS_P1;PMS_P2;Temp;Humidity;BMP_temperature;BMP_pressure;BME280_temperature;BME280_humidity;BME280_pressure;Samples;Min_cycle;Max_cycle;Signal;HPM_P1;HPM_P2
2023/12/18 00:00:53;;;;;;;2.10;0.60;;;;;;;3.73;79.15;97124.16;5133989;27;20814;-57
2023/12/18 00:03:22;;;;;;;1.13;0.57;;;;;;;3.82;79.93;97123.03;5134877;27;20431;-57
2023/12/18 00:05:51;;;;;;;0.97;0.53;;;;;;;3.74;78.71;97125.75;5126098;27;20783;-57
2023/12/18 00:08:20;;;;;;;5.53;0.73;;;;;;;3.69;79.44;97125.50;5134979;27;20445;-57
2023/12/18 00:10:48;;;;;;;0.83;0.57;;;;;;;3.41;79.74;97137.63;5134628;27;20438;-57
2023/12/18 00:13:18;;;;;;;1.07;0.57;;;;;;;3.39;79.34;97129.09;5134091;27;21002;-57
2023/12/18 00:15:47;;;;;;;5.30;0.80;;;;;;;2.82;79.31;97065.19;5134091;27;20450;-57
2023/12/18 00:18:15;;;;;;;0.80;0.80;;;;;;;2.96;81.16;97135.91;5134351;27;20491;-57
2023/12/18 00:20:44;;;;;;;1.23;0.70;;;;;;;2.72;82.21;97138.75;5133753;27;20438;-57
2023/12/18 00:23:12;;;;;;;1.50;1.40;;;;;;;3.01;81.13;97130.97;5134434;27;20458;-57
2023/12/18 00:25:42;;;;;;;1.43;1.43;;;;;;;3.32;79.98;97130.00;5134268;27;20438;-57
2023/12/18 00:28:11;;;;;;;0.80;0.80;;;;;;;3.42;79.37;97133.19;5134465;27;20438;-57
2023/12/18 00:30:41;;;;;;;5.47;1.93;;;;;;;3.40;79.03;97125.50;5120642;27;20481;-58
2023/12/18 00:33:10;;;;;;;1.93;1.83;;;;;;;3.36;79.10;97121.63;5134092;27;20443;-57
2023/12/18 00:35:38;;;;;;;1.40;1.30;;;;;;;3.39;78.68;97125.69;5134606;27;20510;-57
2023/12/18 00:38:07;;;;;;;1.07;0.97;;;;;;;3.34;79.07;97115.72;5134234;27;20481;-57
2023/12/18 00:40:35;;;;;;;1.73;1.30;;;;;;;3.43;79.24;97112.03;5134424;27;20491;-57
2023/12/18 00:43:04;;;;;;;0.70;0.50;;;;;;;3.37;79.56;97104.88;5133804;27;20494;-57
2023/12/18 00:45:33;;;;;;;1.33;0.40;;;;;;;3.09;78.98;97075.88;5133574;27;20446;-57
2023/12/18 00:48:04;;;;;;;1.13;1.13;;;;;;;3.14;80.10;97109.38;5134137;27;20426;-57
2023/12/18 00:50:33;;;;;;;1.13;1.13;;;;;;;3.30;80.56;97104.00;5133661;27;21014;-57
2023/12/18 00:53:02;;;;;;;0.60;0.50;;;;;;;3.35;79.74;97095.59;5133707;27;20477;-57
2023/12/18 00:55:30;;;;;;;0.40;0.30;;;;;;;3.32;78.65;97095.94;5133861;27;20935;-57
2023/12/18 00:57:59;;;;;;;0.43;0.37;;;;;;;3.30;78.17;97090.06;5133334;27;20577;-57
2023/12/18 01:00:27;;;;;;;2.10;0.60;;;;;;;3.33;78.51;97072.19;5133628;27;20444;-57
2023/12/18 01:02:56;;;;;;;3.03;1.10;;;;;;;3.31;78.71;97063.69;5133340;27;20430;-57
2023/12/18 01:05:26;;;;;;;0.40;0.40;;;;;;;3.36;79.16;97069.22;5133730;27;20989;-57
2023/12/18 01:07:55;;;;;;;0.60;0.57;;;;;;;3.23;79.65;97061.16;5133607;27;20521;-57
2023/12/18 01:10:23;;;;;;;0.70;0.70;;;;;;;3.25;79.05;97063.59;5133805;27;20463;-57
2023/12/18 01:12:52;;;;;;;1.13;1.13;;;;;;;3.15;78.84;97045.53;5132780;27;20950;-57
2023/12/18 01:15:20;;;;;;;0.70;0.60;;;;;;;3.06;78.92;97042.16;5133438;27;20426;-57
2023/12/18 01:17:49;;;;;;;0.80;0.80;;;;;;;3.18;78.84;97074.81;5133252;27;20478;-57
2023/12/18 01:20:17;;;;;;;1.20;1.20;;;;;;;2.87;80.67;97068.09;5133061;27;20438;-57
2023/12/18 01:22:47;;;;;;;2.00;1.57;;;;;;;3.03;80.31;97070.56;5106325;27;20442;-57
2023/12/18 01:25:31;;;;;;;1.07;0.93;;;;;;;3.04;80.02;97064.31;5132408;27;20971;-57
2023/12/18 01:28:00;;;;;;;1.73;1.63;;;;;;;3.09;79.76;97064.56;5133251;27;20434;-57
2023/12/18 01:30:28;;;;;;;1.80;1.07;;;;;;;3.10;79.16;97058.34;5133315;27;20483;-57
2023/12/18 01:32:57;;;;;;;1.00;0.63;;;;;;;3.05;79.36;97052.84;5133329;27;20491;-57
2023/12/18 01:35:26;;;;;;;1.37;1.13;;;;;;;2.95;79.68;97065.38;5133213;27;20431;-57
2023/12/18 01:37:56;;;;;;;2.40;1.77;;;;;;;2.93;79.56;97062.13;5132953;27;20534;-57
2023/12/18 01:40:24;;;;;;;2.10;1.80;;;;;;;3.02;79.77;97067.13;5133061;27;20435;-57
2023/12/18 01:42:53;;;;;;;0.70;0.70;;;;;;;3.02;79.90;97056.63;5133236;27;20517;-57
2023/12/18 01:45:22;;;;;;;3.13;1.30;;;;;;;3.08;80.10;97053.31;5133088;27;20434;-57
2023/12/18 01:47:51;;;;;;;1.30;1.23;;;;;;;3.03;79.82;97050.41;5132989;27;20430;-56
2023/12/18 01:50:21;;;;;;;0.70;0.70;;;;;;;3.06;79.75;97047.41;5133092;27;20442;-57
2023/12/18 01:52:49;;;;;;;1.70;1.60;;;;;;;2.75;81.09;97041.53;5132554;27;20448;-57
2023/12/18 01:55:20;;;;;;;1.80;0.73;;;;;;;2.92;83.07;97029.06;5133040;27;20434;-57
2023/12/18 01:57:48;;;;;;;1.17;0.57;;;;;;;3.14;83.48;97038.66;5132115;27;20465;-57
2023/12/18 02:00:17;;;;;;;1.50;1.10;;;;;;;3.17;82.60;97027.81;5132639;27;20443;-57
2023/12/18 02:02:46;;;;;;;1.50;1.30;;;;;;;3.13;80.50;97018.72;5132774;27;20499;-57
2023/12/18 02:05:15;;;;;;;0.80;0.77;;;;;;;3.11;79.91;97023.31;5132581;27;20462;-57
2023/12/18 02:07:44;;;;;;;0.93;0.67;;;;;;;3.10;79.21;97012.03;5131523;27;20438;-57
2023/12/18 02:10:12;;;;;;;1.13;1.07;;;;;;;2.84;80.47;97018.69;5133090;27;20558;-57
2023/12/18 02:12:42;;;;;;;1.03;0.40;;;;;;;3.00;80.56;97008.84;5131712;27;20427;-57
2023/12/18 02:15:11;;;;;;;2.20;0.40;;;;;;;2.95;80.33;97007.78;5132675;27;20431;-57
2023/12/18 02:17:40;;;;;;;0.60;0.50;;;;;;;2.90;80.66;97008.31;5132384;27;20470;-57
2023/12/18 02:20:10;;;;;;;1.27;1.17;;;;;;;2.19;81.07;96911.22;5131599;27;20495;-57
2023/12/18 02:22:51;;;;;;;1.40;0.63;;;;;;;2.69;81.50;97002.97;5132644;27;20912;-57
2023/12/18 02:25:21;;;;;;;0.67;0.60;;;;;;;2.86;80.47;96993.16;5131782;28;20444;-57
2023/12/18 02:27:50;;;;;;;1.17;1.13;;;;;;;2.84;79.80;97002.97;5124530;28;20469;-57
2023/12/18 02:30:20;;;;;;;1.13;1.13;;;;;;;2.67;80.32;96997.09;5127220;28;20439;-57
2023/12/18 02:32:49;;;;;;;0.77;0.67;;;;;;;2.77;79.65;96991.59;5132586;28;20491;-57
2023/12/18 02:35:18;;;;;;;0.80;0.80;;;;;;;2.80;79.32;96992.06;5133636;27;20522;-57
2023/12/18 02:37:48;;;;;;;3.70;0.80;;;;;;;2.55;80.52;96995.91;5137010;27;20462;-57
2023/12/18 02:40:17;;;;;;;1.83;1.73;;;;;;;2.58;80.96;96999.97;5136519;27;20430;-57
2023/12/18 02:42:45;;;;;;;1.50;1.40;;;;;;;2.73;79.97;96991.16;5135796;27;20430;-58
2023/12/18 02:45:14;;;;;;;0.83;0.83;;;;;;;2.49;80.62;96997.44;5135470;27;20842;-58
2023/12/18 02:47:43;;;;;;;1.20;1.20;;;;;;;2.19;81.96;96993.13;5124333;27;20814;-58
2023/12/18 02:50:12;;;;;;;1.20;0.70;;;;;;;2.49;81.85;96996.63;5135215;27;20510;-58
2023/12/18 02:52:41;;;;;;;1.00;0.80;;;;;;;2.74;80.81;96986.72;5136534;27;20466;-58
2023/12/18 02:55:12;;;;;;;0.50;0.40;;;;;;;2.73;80.46;96982.47;5136629;27;20449;-58
2023/12/18 02:57:40;;;;;;;3.50;1.40;;;;;;;2.77;79.76;96975.88;5134535;27;20519;-57
2023/12/18 03:00:10;;;;;;;1.23;1.13;;;;;;;2.81;80.25;96982.41;5136219;27;20472;-57
2023/12/18 03:02:39;;;;;;;0.90;0.90;;;;;;;2.83;80.84;96980.41;5136003;27;20438;-58
2023/12/18 03:05:08;;;;;;;1.43;0.90;;;;;;;2.81;80.16;96985.03;5136036;27;20917;-57
2023/12/18 03:07:37;;;;;;;3.23;1.00;;;;;;;2.78;79.23;96985.38;5135352;27;20438;-57
2023/12/18 03:10:07;;;;;;;1.07;1.07;;;;;;;2.78;79.84;96977.53;5126460;27;20484;-57
2023/12/18 03:12:37;;;;;;;1.33;0.93;;;;;;;2.81;79.54;96990.25;5132476;27;20918;-58
2023/12/18 03:15:06;;;;;;;1.20;0.70;;;;;;;2.85;79.18;96976.63;5136022;27;20521;-57
2023/12/18 03:17:35;;;;;;;0.80;0.80;;;;;;;2.66;79.18;96987.59;5135494;27;20458;-57
2023/12/18 03:20:04;;;;;;;1.00;0.90;;;;;;;2.63;80.60;96981.94;5135622;27;20569;-57
2023/12/18 03:22:33;;;;;;;2.43;2.33;;;;;;;2.62;80.93;96980.28;5135940;27;20452;-57
2023/12/18 03:25:02;;;;;;;1.40;1.37;;;;;;;2.75;80.40;96993.59;5135952;27;20438;-57
2023/12/18 03:27:31;;;;;;;2.53;1.00;;;;;;;2.66;79.49;96973.72;5135902;27;20489;-57
2023/12/18 03:30:01;;;;;;;6.70;0.57;;;;;;;2.73;79.46;96991.16;5135654;27;20896;-57
2023/12/18 03:32:30;;;;;;;1.10;1.00;;;;;;;2.76;79.55;96992.59;5135685;27;20441;-57
2023/12/18 03:34:58;;;;;;;2.07;1.97;;;;;;;2.74;78.44;96986.72;5135156;27;20483;-58
2023/12/18 03:37:27;;;;;;;0.97;0.97;;;;;;;2.59;79.89;96989.31;5135430;27;20447;-57
2023/12/18 03:39:55;;;;;;;2.67;1.43;;;;;;;2.45;80.17;96969.97;5135113;27;20430;-57
2023/12/18 03:42:24;;;;;;;1.63;1.43;;;;;;;2.62;79.93;96988.16;5135712;27;20466;-57
2023/12/18 03:44:52;;;;;;;1.13;0.70;;;;;;;2.58;79.25;96985.09;5134856;27;20466;-57
2023/12/18 03:47:22;;;;;;;4.30;3.17;;;;;;;2.60;79.70;96982.28;5135613;27;20926;-57
2023/12/18 03:49:51;;;;;;;2.30;1.10;;;;;;;2.20;81.98;96986.09;5135513;27;20584;-57
2023/12/18 03:52:20;;;;;;;1.30;1.20;;;;;;;2.19;82.02;96985.28;5135047;27;20969;-58
2023/12/18 03:54:48;;;;;;;2.80;1.93;;;;;;;2.44;81.26;96991.91;5134715;27;20995;-57
2023/12/18 03:57:18;;;;;;;3.57;2.17;;;;;;;2.23;82.65;96994.38;5134740;27;20455;-57
2023/12/18 03:59:47;;;;;;;2.93;2.40;;;;;;;1.88;84.73;97000.19;5128268;27;20485;-57
2023/12/18 04:02:15;;;;;;;6.30;3.07;;;;;;;1.89;84.98;96980.94;5128109;27;20478;-56
2023/12/18 04:04:46;;;;;;;1.83;1.73;;;;;;;2.20;83.77;97001.78;5107974;27;20875;-56
2023/12/18 04:07:15;;;;;;;2.90;2.80;;;;;;;2.29;82.33;97004.16;5135035;27;20578;-56
2023/12/18 04:09:44;;;;;;;2.73;2.10;;;;;;;2.25;81.83;97005.47;5134891;27;20439;-56
2023/12/18 04:12:12;;;;;;;1.93;1.80;;;;;;;2.30;81.38;96997.91;5134297;27;20434;-56
2023/12/18 04:14:43;;;;;;;1.63;0.90;;;;;;;2.46;80.82;96999.56;5108255;27;20470;-57
2023/12/18 04:17:12;;;;;;;1.00;0.93;;;;;;;2.02;81.71;96964.66;5134887;27;20809;-56
2023/12/18 04:19:41;;;;;;;3.70;3.50;;;;;;;2.18;81.73;96991.47;5134489;27;20478;-56
2023/12/18 04:22:11;;;;;;;2.40;1.70;;;;;;;2.16;81.16;96983.00;5121563;27;20534;-56
2023/12/18 04:24:40;;;;;;;2.77;1.73;;;;;;;2.21;81.67;96988.50;5134885;27;20449;-56
2023/12/18 04:27:09;;;;;;;0.87;0.87;;;;;;;2.19;81.15;96990.50;5134339;27;20463;-56
2023/12/18 04:29:39;;;;;;;2.10;1.70;;;;;;;2.07;81.33;96983.25;5134473;27;20434;-56
2023/12/18 04:32:07;;;;;;;2.30;1.27;;;;;;;2.21;81.53;96998.97;5134140;27;20430;-57
2023/12/18 04:34:36;;;;;;;1.03;1.03;;;;;;;2.24;81.08;96993.41;5134891;27;20518;-57
2023/12/18 04:37:05;;;;;;;6.53;0.90;;;;;;;2.15;81.87;96993.66;5134016;27;20439;-57
2023/12/18 04:39:39;;;;;;;5.40;2.30;;;;;;;2.27;80.70;96994.84;5134013;27;20526;-57
2023/12/18 04:42:08;;;;;;;0.77;0.77;;;;;;;2.35;79.53;96986.94;5133835;27;20469;-57
2023/12/18 04:44:37;;;;;;;5.23;2.10;;;;;;;1.97;81.04;96993.94;5134047;27;20442;-57
2023/12/18 04:47:05;;;;;;;1.80;1.13;;;;;;;1.68;82.09;96989.41;5134570;27;20445;-58
2023/12/18 04:49:34;;;;;;;2.33;1.80;;;;;;;1.50;84.45;96980.19;5133876;27;20441;-57
2023/12/18 04:52:03;;;;;;;6.07;3.00;;;;;;;1.51;84.91;96984.44;5134007;27;20467;-57
2023/12/18 04:54:31;;;;;;;1.53;1.30;;;;;;;1.53;85.54;96983.28;5133253;27;20523;-57
2023/12/18 04:57:01;;;;;;;4.87;2.47;;;;;;;1.49;86.08;96987.22;5134164;27;20476;-57
2023/12/18 04:59:30;;;;;;;2.17;1.50;;;;;;;1.35;86.55;96985.34;5133297;27;20470;-57
2023/12/18 05:01:59;;;;;;;1.70;1.60;;;;;;;1.27;86.93;96995.81;5134506;27;20438;-57
2023/12/18 05:04:27;;;;;;;4.57;2.10;;;;;;;1.13;88.17;96992.13;5133361;27;20435;-57
2023/12/18 05:06:56;;;;;;;4.80;3.33;;;;;;;1.14;88.24;97001.59;5133891;27;20449;-58
2023/12/18 05:09:24;;;;;;;3.50;2.53;;;;;;;1.11;88.60;96999.31;5133907;27;20423;-57
2023/12/18 05:11:53;;;;;;;7.67;3.17;;;;;;;1.22;87.24;96988.50;5133546;27;20919;-56
2023/12/18 05:14:23;;;;;;;3.10;2.90;;;;;;;0.75;86.77;96947.72;5133065;27;20446;-58
2023/12/18 05:16:51;;;;;;;3.43;3.13;;;;;;;1.09;87.72;96993.44;5133655;27;20443;-57
2023/12/18 05:19:20;;;;;;;5.00;4.10;;;;;;;0.96;88.19;96981.94;5133214;27;20948;-57
2023/12/18 05:21:49;;;;;;;2.73;2.43;;;;;;;1.10;88.80;96994.25;5132889;27;20434;-57
2023/12/18 05:24:18;;;;;;;1.80;1.70;;;;;;;1.07;88.81;96992.81;5132780;27;20441;-57
2023/12/18 05:26:47;;;;;;;3.47;2.93;;;;;;;1.14;89.87;96991.13;5133337;27;20434;-58
2023/12/18 05:29:16;;;;;;;2.43;2.27;;;;;;;1.16;89.86;97002.22;5119985;27;20461;-58
2023/12/18 05:31:46;;;;;;;3.23;2.37;;;;;;;0.98;90.29;96962.50;5132847;27;20438;-58
2023/12/18 05:34:14;;;;;;;4.63;2.13;;;;;;;1.53;89.04;96991.13;5133055;27;20442;-58
2023/12/18 05:36:43;;;;;;;2.30;2.00;;;;;;;1.65;87.14;96994.97;5118581;27;20444;-57
2023/12/18 05:39:12;;;;;;;1.93;1.83;;;;;;;1.66;85.93;96985.31;5132695;27;20466;-57
2023/12/18 05:41:40;;;;;;;1.90;1.73;;;;;;;1.83;85.78;97005.16;5132850;27;20460;-58
2023/12/18 05:44:09;;;;;;;3.00;2.70;;;;;;;1.64;85.98;97003.00;5132555;27;20439;-58
2023/12/18 05:46:37;;;;;;;4.23;2.73;;;;;;;1.52;88.17;97004.38;5132959;27;20495;-57
2023/12/18 05:49:07;;;;;;;5.33;3.13;;;;;;;1.59;86.82;96997.47;5132575;27;20442;-57
2023/12/18 05:51:36;;;;;;;9.97;2.70;;;;;;;1.78;85.23;96999.63;5131283;27;20468;-58
2023/12/18 05:54:05;;;;;;;9.10;4.60;;;;;;;1.68;86.44;97020.75;5132874;27;20445;-58
2023/12/18 05:56:33;;;;;;;6.20;4.23;;;;;;;1.58;87.75;97028.00;5132444;27;20942;-58
2023/12/18 05:59:02;;;;;;;8.60;6.63;;;;;;;1.66;88.42;97016.69;5132241;27;20847;-58
2023/12/18 06:01:31;;;;;;;5.80;5.40;;;;;;;1.72;87.83;97021.25;5132458;27;20491;-58
2023/12/18 06:03:59;;;;;;;8.47;4.03;;;;;;;1.65;87.98;97021.09;5132722;27;20435;-56
2023/12/18 06:06:29;;;;;;;13.83;7.00;;;;;;;1.61;87.83;97021.63;5132673;27;20817;-57
2023/12/18 06:08:58;;;;;;;10.13;5.83;;;;;;;0.30;87.27;96844.03;5132215;27;20446;-58
2023/12/18 06:11:27;;;;;;;9.43;4.70;;;;;;;1.44;87.51;97015.69;5105810;27;20427;-57
2023/12/18 06:13:55;;;;;;;11.60;5.53;;;;;;;1.50;85.89;97030.66;5132559;27;20496;-58
2023/12/18 06:16:24;;;;;;;6.03;4.23;;;;;;;1.70;85.11;97028.41;5132354;27;20462;-57
2023/12/18 06:18:52;;;;;;;6.20;5.90;;;;;;;1.75;83.77;97021.69;5131700;27;20495;-58
2023/12/18 06:21:21;;;;;;;7.20;4.67;;;;;;;1.67;82.56;97018.34;5132375;27;20903;-58
2023/12/18 06:23:51;;;;;;;4.57;4.23;;;;;;;1.68;83.65;97019.94;5132552;27;20491;-57
2023/12/18 06:26:19;;;;;;;7.20;4.70;;;;;;;1.51;83.61;97010.56;5132811;28;20458;-58
2023/12/18 06:28:48;;;;;;;11.73;7.00;;;;;;;1.39;84.11;97019.78;5132297;28;20473;-58
2023/12/18 06:31:16;;;;;;;13.27;5.37;;;;;;;1.22;86.72;97008.56;5132183;27;20525;-58
2023/12/18 06:33:45;;;;;;;4.87;2.97;;;;;;;1.71;86.06;97009.16;5132177;28;20430;-58
2023/12/18 06:36:16;;;;;;;4.10;1.80;;;;;;;2.19;84.47;97008.81;5132414;28;20449;-58
2023/12/18 06:38:45;;;;;;;12.63;4.10;;;;;;;2.82;82.17;97007.56;5132621;28;20442;-58
2023/12/18 06:41:15;;;;;;;2.43;2.27;;;;;;;3.39;78.31;97008.53;5132467;27;20478;-58
2023/12/18 06:43:45;;;;;;;2.70;2.50;;;;;;;3.43;77.08;96994.09;5131576;28;20442;-59
2023/12/18 06:46:14;;;;;;;1.93;1.30;;;;;;;3.62;76.43;97009.22;5131463;27;20442;-59
2023/12/18 06:48:42;;;;;;;3.70;1.70;;;;;;;3.85;75.81;96995.97;5131910;28;20442;-60
2023/12/18 06:51:11;;;;;;;3.50;1.37;;;;;;;4.25;73.80;96952.56;5131559;27;20470;-60
2023/12/18 06:53:40;;;;;;;5.80;1.93;;;;;;;4.75;73.71;96983.03;5131788;28;20443;-60
2023/12/18 06:56:09;;;;;;;3.03;2.70;;;;;;;4.87;76.28;96984.09;5131651;28;20470;-59
2023/12/18 06:58:40;;;;;;;4.83;3.47;;;;;;;5.06;75.54;96989.47;5132507;28;20455;-58
2023/12/18 07:01:08;;;;;;;2.23;2.03;;;;;;;5.65;75.71;96963.44;5131643;27;20509;-58
2023/12/18 07:03:37;;;;;;;3.10;2.90;;;;;;;5.63;72.10;96988.31;5131895;28;20491;-57
2023/12/18 07:06:07;;;;;;;3.73;3.43;;;;;;;6.01;71.58;96997.38;5131361;28;20923;-58
2023/12/18 07:08:36;;;;;;;5.00;4.60;;;;;;;6.29;70.62;96994.56;5132148;28;20939;-58
2023/12/18 07:11:06;;;;;;;4.30;2.97;;;;;;;6.75;69.28;96990.13;5131542;28;20442;-58
2023/12/18 07:13:35;;;;;;;10.17;4.37;;;;;;;6.74;67.67;96953.41;5132208;28;20860;-58
2023/12/18 07:16:06;;;;;;;2.97;2.77;;;;;;;7.55;65.09;97005.56;5131801;28;20462;-57
2023/12/18 07:18:34;;;;;;;4.13;3.83;;;;;;;7.66;64.01;96998.81;5131674;27;20518;-57
2023/12/18 07:21:04;;;;;;;5.20;4.80;;;;;;;8.02;64.06;96993.75;5125854;27;20478;-57
2023/12/18 07:23:32;;;;;;;3.17;3.00;;;;;;;8.12;62.10;96991.44;5128180;27;20498;-58
2023/12/18 07:26:01;;;;;;;3.83;3.63;;;;;;;8.36;61.36;96987.25;5127871;27;20434;-58
2023/12/18 07:28:29;;;;;;;8.97;3.93;;;;;;;8.06;61.81;96984.38;5134925;27;20513;-58
2023/12/18 07:30:58;;;;;;;3.27;3.17;;;;;;;7.56;61.86;96986.03;5135251;27;21194;-57
2023/12/18 07:33:28;;;;;;;19.67;3.97;;;;;;;7.74;62.02;96968.72;5134821;27;20507;-59
2023/12/18 07:35:56;;;;;;;3.70;3.50;;;;;;;8.54;59.92;96976.75;5134908;27;20438;-59
2023/12/18 07:38:25;;;;;;;14.10;3.93;;;;;;;7.94;60.98;96980.00;5135562;27;20499;-59
2023/12/18 07:40:53;;;;;;;3.57;2.97;;;;;;;8.56;59.79;96956.22;5134744;27;20474;-59
2023/12/18 07:43:22;;;;;;;2.93;2.07;;;;;;;8.88;58.33;96975.44;5136072;27;20857;-58
2023/12/18 07:45:50;;;;;;;2.20;2.07;;;;;;;9.68;57.59;96979.66;5134589;27;20437;-57
2023/12/18 07:48:21;;;;;;;6.83;1.27;;;;;;;9.41;56.93;96983.66;5135347;27;20439;-58
2023/12/18 07:50:52;;;;;;;2.40;2.30;;;;;;;9.35;57.46;96988.00;5135270;27;20494;-58
2023/12/18 07:53:20;;;;;;;2.30;2.20;;;;;;;9.25;56.95;96984.22;5135177;27;20434;-57
2023/12/18 07:55:49;;;;;;;1.67;1.40;;;;;;;10.16;55.86;96984.97;5134555;27;20449;-56
2023/12/18 07:58:21;;;;;;;2.40;1.70;;;;;;;10.62;53.62;96984.25;5134795;27;20434;-56
2023/12/18 08:00:49;;;;;;;0.80;0.80;;;;;;;9.64;54.63;96989.06;5134408;27;20466;-55
2023/12/18 08:03:18;;;;;;;2.43;2.33;;;;;;;9.27;55.60;96990.94;5134930;27;20438;-55
2023/12/18 08:05:47;;;;;;;0.83;0.70;;;;;;;9.86;56.06;96965.59;5134482;27;20434;-55
2023/12/18 08:08:17;;;;;;;1.20;0.90;;;;;;;10.33;55.37;96985.94;5134606;27;20800;-55
2023/12/18 08:10:45;;;;;;;2.33;1.50;;;;;;;10.65;54.83;96965.25;5134046;27;20469;-55
2023/12/18 08:13:14;;;;;;;1.70;1.60;;;;;;;10.73;53.46;96972.84;5134712;27;20450;-56
2023/12/18 08:15:43;;;;;;;4.40;4.00;;;;;;;11.14;53.86;96967.44;5133149;27;20496;-58
2023/12/18 08:18:15;;;;;;;4.27;3.90;;;;;;;10.79;53.92;96971.94;5134184;27;20470;-59
2023/12/18 08:20:45;;;;;;;2.43;1.93;;;;;;;11.63;52.37;96942.19;5133936;27;20521;-60
2023/12/18 08:23:13;;;;;;;3.00;1.43;;;;;;;12.08;51.04;96967.00;5134722;27;20431;-60
2023/12/18 08:25:43;;;;;;;11.87;1.90;;;;;;;12.72;50.61;96972.88;5133632;27;20441;-60
2023/12/18 08:28:12;;;;;;;2.10;1.90;;;;;;;12.56;48.59;96971.81;5134361;27;20438;-60
2023/12/18 08:30:41;;;;;;;1.10;0.90;;;;;;;13.12;49.72;96960.19;5133480;27;20442;-61
2023/12/18 08:33:10;;;;;;;1.90;1.80;;;;;;;13.67;47.49;96949.47;5133864;27;20775;-61
2023/12/18 08:35:39;;;;;;;2.23;2.13;;;;;;;13.59;47.55;96944.56;5134258;27;20514;-61
2023/12/18 08:38:08;;;;;;;2.40;1.90;;;;;;;12.86;47.43;96962.69;5134276;27;20445;-62
2023/12/18 08:40:36;;;;;;;2.83;2.63;;;;;;;13.12;47.08;96943.41;5133648;27;20989;-62
2023/12/18 08:43:06;;;;;;;2.97;1.57;;;;;;;13.41;47.65;96936.09;5134239;27;20930;-62
2023/12/18 08:45:35;;;;;;;8.13;2.23;;;;;;;13.34;46.58;96944.25;5134280;27;20431;-63
2023/12/18 08:48:05;;;;;;;3.13;3.03;;;;;;;13.44;47.29;96927.56;5132472;27;20473;-63
2023/12/18 08:50:33;;;;;;;1.57;1.47;;;;;;;14.25;46.39;96932.75;5123035;27;20942;-64
2023/12/18 08:53:02;;;;;;;3.03;2.10;;;;;;;14.36;45.78;96928.34;5133880;27;20439;-63
2023/12/18 08:55:31;;;;;;;10.57;3.50;;;;;;;14.27;46.29;96930.63;5133976;27;20792;-62
2023/12/18 08:57:59;;;;;;;2.03;1.93;;;;;;;14.71;46.63;96933.97;5133843;27;20790;-61
2023/12/18 09:00:29;;;;;;;2.50;2.40;;;;;;;14.83;45.86;96936.44;5133742;27;21003;-61
2023/12/18 09:02:59;;;;;;;0.87;0.87;;;;;;;15.74;43.42;96932.41;5133156;27;20446;-61
2023/12/18 09:05:28;;;;;;;2.40;2.30;;;;;;;16.05;42.40;96910.06;5134338;27;20868;-61
2023/12/18 09:07:57;;;;;;;2.17;1.70;;;;;;;16.62;41.85;96914.44;5133005;27;20521;-61
2023/12/18 09:10:25;;;;;;;0.90;0.63;;;;;;;16.41;41.45;96905.56;5133768;27;20431;-61
2023/12/18 09:12:54;;;;;;;6.40;2.10;;;;;;;16.39;41.86;96899.66;5133476;27;20517;-60
2023/12/18 09:15:23;;;;;;;3.03;2.83;;;;;;;15.95;41.78;96893.19;5133553;27;20430;-60
2023/12/18 09:17:53;;;;;;;2.20;1.90;;;;;;;15.79;42.58;96887.78;5133587;27;20435;-61
2023/12/18 09:20:21;;;;;;;2.23;2.03;;;;;;;15.58;41.87;96880.00;5133821;27;20435;-61
2023/12/18 09:22:51;;;;;;;2.37;2.27;;;;;;;15.00;42.84;96887.16;5133383;27;20507;-60
2023/12/18 09:25:19;;;;;;;1.53;1.43;;;;;;;15.69;43.64;96878.94;5133076;27;20440;-61
2023/12/18 09:27:48;;;;;;;3.13;1.73;;;;;;;16.30;42.20;96869.16;5133578;27;20434;-61
2023/12/18 09:30:16;;;;;;;1.53;1.50;;;;;;;17.33;40.98;96861.50;5133002;27;20439;-60
2023/12/18 09:32:45;;;;;;;4.40;1.73;;;;;;;16.82;40.51;96861.66;5133305;27;20442;-60
2023/12/18 09:35:16;;;;;;;2.00;1.90;;;;;;;16.82;39.88;96858.16;5132730;27;20939;-60
2023/12/18 09:37:44;;;;;;;1.93;1.83;;;;;;;16.39;40.00;96864.88;5133393;27;20463;-60
2023/12/18 09:40:13;;;;;;;2.97;2.33;;;;;;;16.39;40.67;96862.97;5132372;27;20427;-60
2023/12/18 09:42:42;;;;;;;1.53;1.53;;;;;;;16.76;40.66;96856.56;5123911;27;21008;-60
2023/12/18 09:45:12;;;;;;;3.80;2.47;;;;;;;16.99;39.68;96839.91;5132801;27;20452;-60
2023/12/18 09:47:41;;;;;;;2.17;1.83;;;;;;;15.93;40.41;96716.16;5133236;27;20438;-60
2023/12/18 09:50:10;;;;;;;1.23;1.13;;;;;;;18.21;38.84;96836.34;5132161;27;20434;-60
2023/12/18 09:52:46;;;;;;;0.80;0.70;;;;;;;19.11;37.46;96828.53;5132815;27;20434;-59
2023/12/18 09:55:15;;;;;;;0.70;0.70;;;;;;;18.30;37.15;96807.81;5133091;27;20446;-61
2023/12/18 09:57:45;;;;;;;1.10;1.00;;;;;;;19.58;36.04;96819.66;5132624;27;20438;-61
2023/12/18 10:00:15;;;;;;;2.20;2.10;;;;;;;19.16;36.21;96803.47;5132992;27;20471;-60
2023/12/18 10:02:44;;;;;;;3.77;1.80;;;;;;;18.37;38.53;96792.19;5132041;27;21047;-60
2023/12/18 10:05:13;;;;;;;1.30;1.20;;;;;;;18.22;37.54;96775.41;5132544;27;20441;-61
2023/12/18 10:07:43;;;;;;;1.63;1.53;;;;;;;18.06;38.10;96798.91;5132267;27;21024;-61
2023/12/18 10:10:12;;;;;;;1.57;1.47;;;;;;;18.91;37.12;96797.31;5132614;27;20434;-60
2023/12/18 10:12:40;;;;;;;1.67;1.57;;;;;;;19.01;37.03;96794.50;5132523;27;20438;-61
2023/12/18 10:15:11;;;;;;;1.37;1.27;;;;;;;18.85;37.37;96793.06;5132871;27;20442;-63
2023/12/18 10:17:39;;;;;;;1.63;1.53;;;;;;;18.71;37.92;96781.41;5133077;27;20544;-61
2023/12/18 10:20:10;;;;;;;4.43;1.27;;;;;;;18.92;37.37;96774.72;5132787;27;20434;-60
2023/12/18 10:22:41;;;;;;;5.70;1.47;;;;;;;18.99;37.54;96777.06;5132531;27;20527;-60
2023/12/18 10:25:12;;;;;;;1.63;1.23;;;;;;;19.07;37.10;96773.75;5132817;27;20442;-61
2023/12/18 10:27:42;;;;;;;2.90;1.30;;;;;;;18.55;37.47;96769.22;5106995;28;20513;-60
2023/12/18 10:30:12;;;;;;;1.73;1.63;;;;;;;18.74;38.33;96753.19;5123216;28;20431;-60
2023/12/18 10:32:44;;;;;;;2.40;2.30;;;;;;;18.90;37.63;96759.97;5132454;27;20530;-60
2023/12/18 10:35:14;;;;;;;3.97;2.97;;;;;;;19.22;37.31;96752.06;5131861;28;20447;-60
2023/12/18 10:37:48;;;;;;;1.27;1.17;;;;;;;19.14;36.53;96749.19;5132527;27;20438;-60
2023/12/18 10:40:20;;;;;;;3.40;2.67;;;;;;;19.84;36.84;96742.84;5132278;28;20445;-60
2023/12/18 10:42:59;;;;;;;2.80;1.60;;;;;;;19.64;36.70;96692.03;5131584;28;20503;-60
2023/12/18 10:45:30;;;;;;;1.63;1.50;;;;;;;20.57;35.93;96731.38;5105342;28;20433;-60
2023/12/18 10:48:00;;;;;;;0.50;0.50;;;;;;;20.32;35.32;96723.75;5131968;28;20473;-60
2023/12/18 10:50:31;;;;;;;2.07;1.97;;;;;;;20.59;35.56;96721.91;5132048;28;20481;-60
2023/12/18 10:53:00;;;;;;;6.13;1.57;;;;;;;20.08;35.85;96724.69;5132107;28;20456;-60
2023/12/18 10:55:32;;;;;;;2.83;1.53;;;;;;;20.20;36.62;96725.03;5132194;27;20822;-60
2023/12/18 10:58:03;;;;;;;1.30;1.27;;;;;;;19.78;36.40;96722.50;5136017;27;20438;-59
2023/12/18 11:00:33;;;;;;;1.40;1.30;;;;;;;20.16;36.33;96699.00;5136045;27;20521;-59
2023/12/18 11:03:03;;;;;;;1.10;1.10;;;;;;;20.61;34.91;96657.75;5136147;27;20474;-59
2023/12/18 11:05:32;;;;;;;2.30;0.93;;;;;;;21.87;34.70;96692.75;5136579;27;20493;-60
2023/12/18 11:08:02;;;;;;;1.00;0.57;;;;;;;21.97;34.34;96691.69;5135996;27;20520;-60
2023/12/18 11:10:32;;;;;;;4.87;1.13;;;;;;;21.65;33.86;96684.63;5135304;27;20438;-52
2023/12/18 11:13:10;;;;;;;1.10;1.00;;;;;;;20.96;34.55;96690.47;5136285;27;20453;-57
2023/12/18 11:15:47;;;;;;;2.20;2.10;;;;;;;20.40;35.28;96678.09;5136207;27;20434;-57
2023/12/18 11:18:27;;;;;;;1.57;1.53;;;;;;;20.50;35.17;96679.78;5136066;27;20434;-57
2023/12/18 11:20:58;;;;;;;1.67;1.57;;;;;;;20.49;35.10;96659.38;5135143;27;20458;-56
2023/12/18 11:23:27;;;;;;;1.20;1.10;;;;;;;20.70;35.22;96660.53;5135885;27;20597;-56
2023/12/18 11:26:04;;;;;;;1.10;1.00;;;;;;;20.63;34.67;96654.75;5135152;27;20522;-56
2023/12/18 11:28:35;;;;;;;1.97;1.87;;;;;;;20.54;34.85;96641.19;5130749;27;20434;-56
2023/12/18 11:31:07;;;;;;;3.40;1.23;;;;;;;20.31;35.44;96647.59;5135355;27;20526;-56
2023/12/18 11:33:35;;;;;;;0.90;0.90;;;;;;;20.40;35.88;96645.78;5135876;27;20972;-56
2023/12/18 11:36:17;;;;;;;1.57;1.27;;;;;;;19.81;35.62;96643.88;5135033;27;20437;-57
2023/12/18 11:38:45;;;;;;;0.67;0.67;;;;;;;20.08;35.70;96643.94;5135667;27;20515;-57
2023/12/18 11:41:40;;;;;;;0.70;0.70;;;;;;;20.62;35.34;96637.78;5135211;27;20792;-57
2023/12/18 11:44:09;;;;;;;1.93;1.03;;;;;;;20.77;34.68;96639.41;5135390;27;20997;-57
2023/12/18 11:46:39;;;;;;;1.37;1.27;;;;;;;20.99;36.01;96638.66;5135836;27;20914;-57
2023/12/18 11:49:08;;;;;;;1.63;0.90;;;;;;;21.35;35.05;96624.06;5135280;27;20452;-56